Time;durP1;ratioP1;P1;durP2;ratioP2;P2;SDS_P1;SDS_P2;PMS_P1;PMS_P2;Temp;Humidity;BMP_temperature;BMP_pressure;BME280_temperature;BME280_humidity;BME280_pressure;Samples;Min_cycle;Max_cycle;Signal;HPM_P1;HPM_P2
2021/12/22 00:02:05;;;;;;;8.57;4.15;;;-9.50;88.60;;;;;;5034376;28;20069;-85
2021/12/22 00:04:32;;;;;;;10.93;4.55;;;-9.50;88.10;;;;;;5035710;28;20032;-85
2021/12/22 00:06:58;;;;;;;11.40;4.70;;;-9.50;88.00;;;;;;5035171;28;20038;-86
2021/12/22 00:09:24;;;;;;;9.90;4.15;;;-9.50;87.90;;;;;;5017394;28;20484;-85
2021/12/22 00:11:51;;;;;;;9.27;4.35;;;-9.60;88.10;;;;;;5035812;28;20042;-87
2021/12/22 00:14:17;;;;;;;9.82;4.43;;;-9.20;88.30;;;;;;5017446;28;20041;-86
2021/12/22 00:16:43;;;;;;;12.35;5.63;;;-9.60;88.30;;;;;;5035512;28;20060;-86
2021/12/22 00:19:09;;;;;;;13.23;5.57;;;-9.70;88.20;;;;;;5016848;28;20391;-86
2021/12/22 00:21:35;;;;;;;13.05;4.88;;;-9.80;88.50;;;;;;5001028;28;20036;-85
2021/12/22 00:24:00;;;;;;;10.20;4.47;;;-9.90;88.60;;;;;;5034286;28;20034;-86
2021/12/22 00:26:26;;;;;;;11.75;5.03;;;-10.00;88.60;;;;;;5034992;28;20495;-86
2021/12/22 00:28:52;;;;;;;12.68;5.35;;;-10.00;89.80;;;;;;5034968;28;20053;-86
2021/12/22 00:31:20;;;;;;;14.55;5.22;;;-10.10;89.20;;;;;;5034655;28;20045;-85
2021/12/22 00:33:49;;;;;;;16.08;5.72;;;-10.00;89.00;;;;;;5034933;28;20056;-85
2021/12/22 00:36:17;;;;;;;11.63;5.10;;;-10.10;89.70;;;;;;5034971;28;20034;-85
2021/12/22 00:38:42;;;;;;;14.65;5.35;;;-10.20;89.90;;;;;;5017038;28;20038;-85
2021/12/22 00:41:08;;;;;;;14.70;5.80;;;-10.20;90.00;;;;;;5033623;28;20048;-85
2021/12/22 00:43:34;;;;;;;10.23;4.63;;;-10.30;90.20;;;;;;5016601;28;20054;-85
2021/12/22 00:46:00;;;;;;;11.55;4.68;;;-10.30;90.40;;;;;;5016764;28;20458;-85
2021/12/22 00:48:25;;;;;;;11.93;4.68;;;-10.40;90.60;;;;;;5036076;28;20029;-85
2021/12/22 00:50:51;;;;;;;9.90;4.45;;;-10.40;90.60;;;;;;5038935;28;20484;-85
2021/12/22 00:53:17;;;;;;;8.13;4.13;;;-10.40;90.60;;;;;;5017412;28;20037;-86
2021/12/22 00:55:43;;;;;;;12.45;6.07;;;-10.50;90.70;;;;;;5034396;28;20025;-85
2021/12/22 00:58:09;;;;;;;11.60;5.78;;;-10.50;90.50;;;;;;5017107;28;20037;-86
2021/12/22 01:00:35;;;;;;;14.30;6.20;;;-10.60;90.20;;;;;;5016563;28;20034;-87
2021/12/22 01:03:01;;;;;;;13.85;6.25;;;-10.70;90.30;;;;;;5034275;28;20113;-85
2021/12/22 01:05:27;;;;;;;11.43;5.38;;;-10.80;90.90;;;;;;5016663;28;20029;-85
2021/12/22 01:07:53;;;;;;;10.45;5.10;;;-10.90;90.50;;;;;;5034965;28;20171;-85
2021/12/22 01:10:23;;;;;;;13.65;5.80;;;-11.00;90.80;;;;;;5034349;28;20105;-85
2021/12/22 01:12:51;;;;;;;14.57;5.90;;;-11.00;91.30;;;;;;5016451;28;20472;-85
2021/12/22 01:15:17;;;;;;;12.27;5.40;;;-11.10;91.20;;;;;;5016443;28;20040;-84
2021/12/22 01:17:46;;;;;;;11.63;5.63;;;-11.10;91.40;;;;;;5033809;28;20464;-84
2021/12/22 01:20:23;;;;;;;14.15;5.50;;;-11.20;91.30;;;;;;5016305;28;20038;-84
2021/12/22 01:22:50;;;;;;;11.18;4.63;;;-11.30;91.60;;;;;;5016821;28;20371;-84
2021/12/22 01:25:21;;;;;;;12.48;5.68;;;-11.30;91.20;;;;;;5016518;28;20037;-84
2021/12/22 01:27:48;;;;;;;15.40;5.97;;;-11.40;91.30;;;;;;5033978;28;20041;-85
2021/12/22 01:30:22;;;;;;;17.20;6.28;;;-11.40;91.10;;;;;;5016182;28;20044;-85
2021/12/22 01:32:51;;;;;;;15.02;6.50;;;-11.40;91.30;;;;;;5016330;28;20041;-85
2021/12/22 01:35:19;;;;;;;14.13;5.30;;;-11.40;91.30;;;;;;5016307;28;20091;-85
2021/12/22 01:37:45;;;;;;;16.42;6.43;;;-11.50;91.30;;;;;;5033676;28;20053;-85
2021/12/22 01:40:13;;;;;;;17.75;6.18;;;-11.50;91.00;;;;;;5034129;28;20029;-84
2021/12/22 01:42:39;;;;;;;14.25;5.03;;;-11.60;91.00;;;;;;5015384;28;20155;-85
2021/12/22 01:51:07;;;;;;;13.15;5.40;;;-11.60;91.80;;;;;;5035363;28;20120;-85
2021/12/22 01:53:45;;;;;;;12.90;5.70;;;-11.60;92.10;;;;;;5017691;28;20030;-85
2021/12/22 01:58:45;;;;;;;10.68;4.78;;;-11.50;91.90;;;;;;5033909;28;20464;-85
2021/12/22 02:01:12;;;;;;;10.52;5.15;;;-11.50;91.40;;;;;;5032494;28;20036;-85
2021/12/22 02:03:39;;;;;;;10.98;4.70;;;-11.50;91.40;;;;;;5015805;28;20091;-85
2021/12/22 02:06:06;;;;;;;8.23;4.50;;;-11.60;91.30;;;;;;5016090;28;20116;-85
2021/12/22 02:08:33;;;;;;;11.93;5.10;;;-11.60;91.50;;;;;;5015931;28;20030;-85
2021/12/22 02:10:58;;;;;;;10.93;5.45;;;-11.70;91.80;;;;;;5033610;28;20108;-85
2021/12/22 02:13:30;;;;;;;11.85;5.15;;;-11.70;92.40;;;;;;5015501;28;20116;-85
2021/12/22 02:16:05;;;;;;;7.35;4.03;;;-11.70;92.50;;;;;;5016638;28;20041;-85
2021/12/22 02:18:31;;;;;;;10.23;5.30;;;-11.70;92.30;;;;;;5033420;28;20029;-86
2021/12/22 02:20:57;;;;;;;10.70;4.60;;;-10.70;91.90;;;;;;5016158;28;20533;-84
2021/12/22 02:23:23;;;;;;;10.27;4.95;;;-11.90;92.40;;;;;;5033213;28;20053;-85
2021/12/22 02:25:54;;;;;;;11.80;4.10;;;-11.80;92.30;;;;;;5015715;28;20080;-85
2021/12/22 02:28:25;;;;;;;9.07;4.43;;;-11.90;92.60;;;;;;5016566;28;20438;-85
2021/12/22 02:30:52;;;;;;;11.43;5.47;;;-11.90;92.10;;;;;;5033510;28;20052;-86
2021/12/22 02:33:24;;;;;;;9.93;4.97;;;-11.90;93.20;;;;;;5033404;28;20040;-86
2021/12/22 02:36:09;;;;;;;11.80;5.68;;;-11.90;93.10;;;;;;5033396;28;20111;-86
2021/12/22 02:38:43;;;;;;;12.38;6.10;;;-12.10;93.40;;;;;;5032656;28;20037;-86
2021/12/22 02:41:13;;;;;;;14.27;6.90;;;-11.90;93.60;;;;;;5015299;28;20034;-86
2021/12/22 02:43:49;;;;;;;23.52;10.38;;;-11.70;93.20;;;;;;5015192;28;20180;-86
2021/12/22 02:46:17;;;;;;;42.85;17.23;;;-11.80;93.00;;;;;;5033555;28;20045;-86
2021/12/22 02:48:44;;;;;;;39.10;16.85;;;-11.80;92.90;;;;;;5015553;28;20045;-85
2021/12/22 02:51:10;;;;;;;56.67;23.67;;;-11.80;92.50;;;;;;5016015;28;20036;-85
2021/12/22 02:54:04;;;;;;;45.70;17.65;;;-11.90;92.40;;;;;;5034157;28;20033;-85
2021/12/22 02:56:54;;;;;;;28.83;12.05;;;-12.00;92.50;;;;;;5037239;28;20038;-86
2021/12/22 03:02:34;;;;;;;20.50;8.38;;;-12.10;92.40;;;;;;5037311;28;20049;-83
2021/12/22 03:05:02;;;;;;;19.10;8.20;;;-12.20;92.90;;;;;;5037281;28;20033;-84
2021/12/22 03:07:30;;;;;;;20.60;9.02;;;-12.20;93.30;;;;;;5036660;28;20070;-84
2021/12/22 03:10:04;;;;;;;22.05;9.48;;;-12.30;93.50;;;;;;5018970;28;20499;-84
2021/12/22 03:12:33;;;;;;;22.63;9.45;;;-12.30;93.30;;;;;;5019300;28;20084;-84
2021/12/22 03:14:59;;;;;;;16.08;8.15;;;-12.30;93.60;;;;;;5019189;28;20491;-84
2021/12/22 03:17:25;;;;;;;18.30;8.75;;;-12.30;93.70;;;;;;5019388;28;20041;-84
2021/12/22 03:19:51;;;;;;;16.85;8.82;;;-12.30;93.80;;;;;;5040748;28;20041;-86
2021/12/22 03:22:19;;;;;;;14.63;7.28;;;-12.30;94.10;;;;;;5036196;28;20476;-85
2021/12/22 03:24:47;;;;;;;20.67;9.02;;;-12.40;94.00;;;;;;5019037;28;20038;-85
2021/12/22 03:27:13;;;;;;;18.60;9.07;;;-12.30;94.00;;;;;;5036175;28;20490;-85
2021/12/22 03:29:39;;;;;;;25.83;11.85;;;-12.40;93.70;;;;;;5036274;28;20042;-84
2021/12/22 03:32:07;;;;;;;28.52;13.90;;;-12.30;94.10;;;;;;5035217;28;20464;-84
2021/12/22 03:34:33;;;;;;;20.98;11.52;;;-12.30;94.50;;;;;;5036267;28;20084;-84
2021/12/22 03:36:59;;;;;;;28.45;13.32;;;-12.30;94.10;;;;;;5043427;28;20073;-84
2021/12/22 03:39:27;;;;;;;19.33;10.50;;;-12.30;94.30;;;;;;5028103;28;20034;-85
2021/12/22 03:41:53;;;;;;;20.15;10.30;;;-12.30;94.40;;;;;;5027968;28;20041;-86
2021/12/22 03:44:19;;;;;;;16.83;8.45;;;-12.30;94.30;;;;;;5028213;28;20056;-85
2021/12/22 03:46:45;;;;;;;18.67;8.90;;;-12.30;93.70;;;;;;5037224;28;20456;-85
2021/12/22 03:49:12;;;;;;;18.10;7.82;;;-12.30;94.00;;;;;;5018252;28;20087;-86
2021/12/22 03:51:38;;;;;;;20.95;8.77;;;-12.30;93.90;;;;;;5018222;28;20041;-85
2021/12/22 03:54:06;;;;;;;20.50;9.85;;;-11.10;94.30;;;;;;5018020;28;20470;-86
2021/12/22 03:56:31;;;;;;;16.90;8.10;;;-12.30;94.30;;;;;;5018056;28;20037;-86
2021/12/22 03:58:57;;;;;;;20.95;8.38;;;-12.30;94.40;;;;;;5018274;28;20492;-84
2021/12/22 04:01:24;;;;;;;17.60;7.85;;;-12.90;94.40;;;;;;5018400;28;20033;-84
2021/12/22 04:03:54;;;;;;;17.50;8.45;;;-12.30;94.10;;;;;;5018602;28;20041;-85
2021/12/22 04:06:20;;;;;;;13.00;7.10;;;-12.40;94.20;;;;;;5035406;28;20091;-84
2021/12/22 04:08:46;;;;;;;14.43;7.43;;;-12.40;94.00;;;;;;5035899;28;20033;-85
2021/12/22 04:11:12;;;;;;;16.20;8.52;;;-12.50;94.10;;;;;;5017105;28;20403;-85
2021/12/22 04:13:37;;;;;;;18.65;7.97;;;-12.50;94.60;;;;;;5035395;28;20375;-85
2021/12/22 04:16:03;;;;;;;19.98;9.43;;;-12.50;94.60;;;;;;5017560;28;20034;-85
2021/12/22 04:18:29;;;;;;;17.20;8.45;;;-12.50;94.80;;;;;;5017261;28;20033;-86
2021/12/22 04:20:55;;;;;;;26.88;11.98;;;-12.50;94.30;;;;;;5017670;28;20034;-86
2021/12/22 04:23:21;;;;;;;25.55;10.32;;;-12.50;94.10;;;;;;5017249;28;20038;-85
2021/12/22 04:25:47;;;;;;;31.08;11.88;;;-12.60;94.00;;;;;;5035084;28;20057;-85
2021/12/22 04:28:13;;;;;;;33.60;12.98;;;-12.70;93.90;;;;;;5017273;28;20479;-85
2021/12/22 04:30:49;;;;;;;44.55;14.10;;;-12.70;94.40;;;;;;5034937;28;20026;-85
2021/12/22 04:33:17;;;;;;;32.97;11.43;;;-12.70;94.80;;;;;;5035163;28;20490;-86
2021/12/22 04:35:43;;;;;;;28.30;8.90;;;-12.70;95.10;;;;;;5034904;28;20029;-87
2021/12/22 04:38:09;;;;;;;21.00;8.05;;;-12.60;95.20;;;;;;5035158;28;20064;-86
2021/12/22 04:40:35;;;;;;;20.05;7.03;;;-12.60;94.80;;;;;;5016804;28;20037;-86
2021/12/22 04:43:00;;;;;;;15.50;7.28;;;-12.30;95.60;;;;;;5018496;28;20042;-86
2021/12/22 04:45:26;;;;;;;14.23;6.60;;;-12.50;95.40;;;;;;5036055;28;20033;-86
2021/12/22 04:47:53;;;;;;;28.10;6.65;;;-12.50;95.30;;;;;;5034565;28;20056;-87
2021/12/22 04:50:21;;;;;;;11.32;5.00;;;-12.40;95.30;;;;;;5034558;28;20025;-86
2021/12/22 04:52:55;;;;;;;11.70;5.22;;;-12.30;95.10;;;;;;5033328;28;20037;-86
2021/12/22 04:55:23;;;;;;;12.38;6.20;;;-12.30;95.10;;;;;;5034847;28;20113;-87
2021/12/22 04:57:49;;;;;;;11.45;5.75;;;-12.30;94.60;;;;;;5033539;28;20040;-87
2021/12/22 05:00:16;;;;;;;11.40;5.90;;;-12.30;94.30;;;;;;5034135;28;20037;-85
2021/12/22 05:02:42;;;;;;;14.73;5.85;;;-12.30;94.30;;;;;;5034786;28;20079;-88
2021/12/22 05:05:08;;;;;;;12.57;6.28;;;-12.40;94.70;;;;;;5029110;28;20033;-88
2021/12/22 05:07:34;;;;;;;9.50;4.97;;;-12.30;94.70;;;;;;5031751;28;20041;-89
2021/12/22 05:10:00;;;;;;;11.68;5.50;;;-12.30;94.10;;;;;;5032084;28;20479;-88
2021/12/22 05:12:25;;;;;;;12.05;5.57;;;-12.40;94.40;;;;;;5025115;28;20033;-87
2021/12/22 05:14:52;;;;;;;13.10;5.43;;;-12.30;95.20;;;;;;5027490;28;20044;-86
2021/12/22 05:17:28;;;;;;;13.05;6.13;;;-12.30;94.90;;;;;;4993096;28;20477;-86
2021/12/22 05:19:53;;;;;;;11.75;5.50;;;-12.30;94.50;;;;;;4993271;28;20034;-85
2021/12/22 05:22:19;;;;;;;11.93;5.95;;;-12.30;93.90;;;;;;4994613;28;20116;-85
2021/12/22 05:24:45;;;;;;;11.23;5.47;;;-12.40;94.10;;;;;;4993396;28;20125;-87
2021/12/22 05:27:13;;;;;;;11.68;5.63;;;-12.40;93.80;;;;;;4993730;28;20042;-86
2021/12/22 05:29:39;;;;;;;13.48;5.85;;;-12.40;94.20;;;;;;4995195;28;20052;-87
2021/12/22 05:32:06;;;;;;;13.48;5.65;;;-12.40;94.10;;;;;;4992766;28;20030;-88
2021/12/22 05:34:32;;;;;;;11.65;5.18;;;-12.50;94.80;;;;;;4992650;28;20440;-84
2021/12/22 05:36:59;;;;;;;13.63;5.57;;;-12.50;94.60;;;;;;5006045;28;20046;-84
2021/12/22 05:39:25;;;;;;;9.82;5.38;;;-12.50;94.30;;;;;;5014232;28;20358;-89
2021/12/22 05:41:51;;;;;;;11.80;5.03;;;-12.50;94.80;;;;;;5003716;28;20041;-85
2021/12/22 05:44:16;;;;;;;11.75;4.90;;;-12.50;94.80;;;;;;5010127;28;20053;-86
2021/12/22 05:46:42;;;;;;;13.43;6.28;;;-12.50;95.60;;;;;;4995707;28;20046;-91
2021/12/22 05:49:08;;;;;;;12.77;5.78;;;-12.50;95.50;;;;;;5012688;28;20369;-88
2021/12/22 05:51:34;;;;;;;11.05;5.35;;;-12.50;95.60;;;;;;5011267;28;20034;-89
2021/12/22 05:54:01;;;;;;;9.85;5.07;;;-11.80;95.30;;;;;;4994037;28;20193;-88
2021/12/22 05:56:29;;;;;;;12.75;6.05;;;-12.50;95.10;;;;;;4994338;28;20069;-88
2021/12/22 05:58:56;;;;;;;12.50;5.85;;;-12.30;95.00;;;;;;5018477;28;20030;-88
2021/12/22 06:01:21;;;;;;;12.25;6.32;;;-12.50;95.30;;;;;;4997141;28;20061;-88
2021/12/22 06:03:47;;;;;;;14.52;6.15;;;-12.40;96.00;;;;;;5012983;28;20452;-88
2021/12/22 06:06:13;;;;;;;14.02;6.10;;;-12.40;96.10;;;;;;5013146;28;20105;-87
2021/12/22 06:08:38;;;;;;;13.57;6.05;;;-12.40;95.80;;;;;;5015004;28;20041;-85
2021/12/22 06:11:04;;;;;;;15.90;7.22;;;-12.40;95.50;;;;;;4998109;28;20038;-88
2021/12/22 06:13:30;;;;;;;18.27;8.32;;;-12.30;95.40;;;;;;4996253;28;20045;-86
2021/12/22 06:15:55;;;;;;;17.23;7.82;;;-12.30;96.00;;;;;;4995498;28;20041;-86
2021/12/22 06:18:21;;;;;;;23.15;8.70;;;-12.30;96.30;;;;;;5013569;28;20105;-84
2021/12/22 06:20:47;;;;;;;23.45;10.00;;;-12.30;96.20;;;;;;5012178;28;20034;-85
2021/12/22 06:23:13;;;;;;;22.25;9.23;;;-12.20;96.20;;;;;;4995596;28;20034;-85
2021/12/22 06:25:42;;;;;;;24.33;10.80;;;-12.10;96.40;;;;;;4995411;28;20030;-82
2021/12/22 06:28:08;;;;;;;39.25;14.43;;;-12.00;96.30;;;;;;4995732;28;20550;-83
2021/12/22 06:30:37;;;;;;;42.92;15.07;;;-12.00;95.90;;;;;;4999380;28;20030;-85
2021/12/22 06:33:03;;;;;;;51.88;18.02;;;-11.90;95.80;;;;;;5016025;28;20484;-82
2021/12/22 06:35:29;;;;;;;57.33;19.95;;;-11.90;95.60;;;;;;5016918;28;20065;-81
2021/12/22 06:37:54;;;;;;;47.17;18.45;;;-11.80;95.90;;;;;;5015643;28;20392;-81
2021/12/22 06:40:20;;;;;;;51.28;19.33;;;-11.80;96.10;;;;;;4999241;28;20415;-82
2021/12/22 06:42:46;;;;;;;47.90;19.02;;;-11.70;95.50;;;;;;5016876;28;20042;-81
2021/12/22 06:45:14;;;;;;;47.55;17.75;;;-11.70;95.80;;;;;;4999454;28;20042;-82
2021/12/22 06:47:41;;;;;;;35.00;14.07;;;-11.60;95.80;;;;;;4999868;28;20444;-86
2021/12/22 06:50:09;;;;;;;28.73;11.23;;;-11.60;95.40;;;;;;5017289;28;20034;-84
2021/12/22 06:52:37;;;;;;;42.78;18.58;;;-11.50;95.90;;;;;;5016706;28;20030;-82
2021/12/22 06:55:03;;;;;;;29.95;13.45;;;-11.40;96.20;;;;;;5017287;28;20037;-82
2021/12/22 06:57:33;;;;;;;29.13;12.48;;;-11.30;98.60;;;;;;4998970;28;20045;-82
2021/12/22 07:00:00;;;;;;;25.23;9.93;;;-11.00;99.90;;;;;;5015194;28;20084;-84
2021/12/22 07:02:26;;;;;;;19.63;9.32;;;-10.40;99.90;;;;;;5013269;28;20059;-83
2021/12/22 07:04:52;;;;;;;22.63;10.05;;;-9.80;99.90;;;;;;4996807;28;20598;-83
2021/12/22 07:07:18;;;;;;;19.13;9.73;;;-9.20;99.90;;;;;;5014774;28;20041;-83
2021/12/22 07:09:44;;;;;;;19.98;9.43;;;-8.70;99.90;;;;;;5014549;28;20118;-82
2021/12/22 07:12:10;;;;;;;25.95;11.50;;;-8.10;99.90;;;;;;5016600;28;20061;-83
2021/12/22 07:14:36;;;;;;;23.30;12.50;;;-7.60;99.90;;;;;;5016111;28;20034;-84
2021/12/22 07:17:02;;;;;;;24.55;12.73;;;-7.20;99.90;;;;;;5015754;28;20041;-82
2021/12/22 07:19:28;;;;;;;20.33;10.43;;;-6.80;99.90;;;;;;5014650;28;20034;-82
2021/12/22 07:21:55;;;;;;;16.50;8.88;;;-6.40;99.90;;;;;;5016162;28;20034;-83
2021/12/22 07:24:21;;;;;;;16.08;8.00;;;-6.10;99.70;;;;;;4998363;28;20042;-83
2021/12/22 07:26:47;;;;;;;19.95;8.90;;;-5.70;99.30;;;;;;4998723;28;20052;-83
2021/12/22 07:29:13;;;;;;;17.77;10.10;;;-5.40;97.10;;;;;;5014855;28;20437;-83
2021/12/22 07:31:39;;;;;;;16.13;8.43;;;-5.30;93.10;;;;;;4998393;28;20041;-82
2021/12/22 07:34:22;;;;;;;15.02;8.25;;;-5.30;93.30;;;;;;4998803;28;20038;-83
2021/12/22 07:36:58;;;;;;;15.65;8.43;;;-5.20;90.30;;;;;;4998712;28;20048;-82
2021/12/22 07:39:24;;;;;;;15.32;8.32;;;-5.00;92.50;;;;;;5015181;28;20466;-82
2021/12/22 07:41:52;;;;;;;13.07;7.80;;;-4.80;91.40;;;;;;5014104;28;20061;-83
2021/12/22 07:44:18;;;;;;;14.38;8.57;;;-4.60;90.20;;;;;;5016230;28;20057;-83
2021/12/22 07:46:44;;;;;;;15.85;7.95;;;-4.30;88.20;;;;;;5014863;28;20046;-83
2021/12/22 07:49:10;;;;;;;13.68;7.55;;;-4.00;87.50;;;;;;4998493;28;20038;-83
2021/12/22 07:51:36;;;;;;;11.95;6.70;;;-3.80;87.10;;;;;;4998136;28;20041;-82
2021/12/22 07:54:02;;;;;;;15.45;7.55;;;-3.60;86.10;;;;;;5000112;28;20564;-83
2021/12/22 07:56:27;;;;;;;13.38;7.07;;;-3.50;83.30;;;;;;5015207;28;20034;-82
2021/12/22 07:58:54;;;;;;;11.82;6.07;;;-3.30;80.60;;;;;;4999360;28;20152;-83
2021/12/22 08:01:20;;;;;;;11.10;6.32;;;-3.10;80.90;;;;;;5017188;28;20120;-84
2021/12/22 08:03:46;;;;;;;11.20;6.10;;;-2.90;79.50;;;;;;4998365;28;20038;-84
2021/12/22 08:06:13;;;;;;;12.43;6.90;;;-2.70;77.00;;;;;;5015692;28;20392;-83
2021/12/22 08:08:39;;;;;;;11.23;5.88;;;-2.50;75.90;;;;;;5015728;28;20496;-83
2021/12/22 08:11:05;;;;;;;8.75;5.00;;;-2.20;76.40;;;;;;5015526;28;20388;-83
2021/12/22 08:13:32;;;;;;;11.50;6.35;;;-1.90;76.50;;;;;;5015200;28;20033;-82
2021/12/22 08:15:58;;;;;;;10.98;6.47;;;-1.80;72.20;;;;;;5015484;28;20034;-82
2021/12/22 08:18:24;;;;;;;11.63;6.28;;;-1.50;71.90;;;;;;5015475;28;20044;-83
2021/12/22 08:20:50;;;;;;;11.10;5.95;;;-1.30;70.70;;;;;;4997612;28;20033;-83
2021/12/22 08:23:18;;;;;;;11.18;5.85;;;-1.10;71.30;;;;;;5014283;28;20092;-83
2021/12/22 08:25:45;;;;;;;11.02;5.90;;;-0.90;68.60;;;;;;4997787;28;20034;-84
2021/12/22 08:28:10;;;;;;;9.15;5.05;;;-0.70;70.80;;;;;;4997760;28;20046;-84
2021/12/22 08:30:37;;;;;;;7.93;4.68;;;-0.70;67.20;;;;;;5015565;28;20056;-83
2021/12/22 08:33:09;;;;;;;6.97;4.35;;;-0.90;64.90;;;;;;5015016;28;20044;-83
2021/12/22 08:38:50;;;;;;;7.93;4.68;;;-0.90;65.30;;;;;;4998280;28;20100;-84
2021/12/22 08:41:06;;;;;;;8.40;5.10;;;-0.80;65.90;;;;;;5015218;28;20065;-82
2021/12/22 08:43:32;;;;;;;7.82;4.60;;;-0.90;63.60;;;;;;5014825;28;20393;-82
2021/12/22 08:45:58;;;;;;;8.27;4.70;;;-1.00;63.80;;;;;;5013690;28;20041;-82
2021/12/22 08:48:23;;;;;;;7.57;4.43;;;-1.20;62.60;;;;;;5014684;28;20038;-83
2021/12/22 08:50:49;;;;;;;7.32;4.78;;;-1.70;60.80;;;;;;4997446;28;20034;-82
2021/12/22 08:53:15;;;;;;;7.57;4.40;;;-1.90;62.20;;;;;;4996294;28;20045;-82
2021/12/22 08:55:40;;;;;;;9.60;4.55;;;-2.10;63.50;;;;;;4998454;28;20034;-82
2021/12/22 08:58:06;;;;;;;8.98;4.75;;;-2.00;63.60;;;;;;5019436;28;20030;-82
2021/12/22 09:00:33;;;;;;;7.97;4.32;;;-1.70;63.90;;;;;;5001127;28;20037;-82
2021/12/22 09:02:59;;;;;;;9.43;4.65;;;-1.40;62.10;;;;;;5014767;28;20029;-82
2021/12/22 09:05:25;;;;;;;7.72;4.10;;;-1.20;61.30;;;;;;4996860;28;20045;-82
2021/12/22 09:07:51;;;;;;;7.22;3.90;;;-1.20;61.10;;;;;;5013295;28;20046;-82
2021/12/22 09:10:17;;;;;;;8.18;4.47;;;-1.20;60.70;;;;;;5014729;28;20424;-83
2021/12/22 09:12:43;;;;;;;7.40;4.00;;;-1.10;61.00;;;;;;5013313;28;20387;-82
2021/12/22 09:15:08;;;;;;;8.38;4.40;;;-1.00;62.10;;;;;;5015108;28;20030;-82
2021/12/22 09:17:34;;;;;;;8.40;4.38;;;-1.10;59.70;;;;;;4996480;28;20101;-82
2021/12/22 09:20:00;;;;;;;10.23;6.05;;;-1.30;59.40;;;;;;5014584;28;20026;-83
2021/12/22 09:22:26;;;;;;;10.13;5.43;;;-1.40;60.90;;;;;;4997158;28;20037;-82
2021/12/22 09:24:52;;;;;;;9.65;5.15;;;-1.70;60.80;;;;;;5013177;28;20030;-84
2021/12/22 09:27:18;;;;;;;14.63;6.45;;;-1.90;60.50;;;;;;5014563;28;20461;-81
2021/12/22 09:29:44;;;;;;;8.60;4.90;;;-2.20;61.60;;;;;;5014033;28;20113;-82
2021/12/22 09:32:14;;;;;;;8.73;4.82;;;-2.20;62.10;;;;;;4996195;28;20037;-83
2021/12/22 09:34:44;;;;;;;9.00;4.68;;;-2.00;62.60;;;;;;4997352;28;20452;-83
2021/12/22 09:37:11;;;;;;;10.13;4.43;;;-1.50;62.70;;;;;;4997007;28;20046;-82
2021/12/22 09:39:37;;;;;;;10.70;5.32;;;-1.10;61.90;;;;;;5013507;28;20080;-84
2021/12/22 09:42:04;;;;;;;9.40;5.15;;;-0.80;61.50;;;;;;4996582;28;20461;-80
2021/12/22 09:44:32;;;;;;;9.90;6.22;;;-0.50;60.40;;;;;;5014599;28;20060;-82
2021/12/22 09:46:59;;;;;;;10.32;5.68;;;-0.50;58.80;;;;;;4996481;28;20065;-83
2021/12/22 09:49:58;;;;;;;9.10;5.30;;;-0.30;59.50;;;;;;5015520;28;20153;-83
2021/12/22 09:52:23;;;;;;;9.10;5.20;;;-0.30;58.30;;;;;;5014570;28;20037;-83
2021/12/22 09:54:52;;;;;;;10.10;4.93;;;-0.60;57.80;;;;;;5014079;28;20160;-83
2021/12/22 09:57:19;;;;;;;9.23;5.20;;;-0.70;57.60;;;;;;5014020;28;20125;-83
2021/12/22 09:59:51;;;;;;;12.30;5.03;;;-1.10;57.40;;;;;;5015143;28;20081;-82
2021/12/22 10:02:19;;;;;;;7.70;4.90;;;-1.50;57.30;;;;;;5014490;28;20030;-83
2021/12/22 10:04:45;;;;;;;9.30;5.38;;;-2.00;58.40;;;;;;5017119;28;20376;-83
2021/12/22 10:07:21;;;;;;;10.30;5.43;;;-2.10;60.20;;;;;;5016651;28;20137;-83
2021/12/22 10:09:48;;;;;;;10.32;5.20;;;-2.00;59.90;;;;;;5001072;28;20546;-83
2021/12/22 10:12:19;;;;;;;10.25;5.55;;;-1.60;58.90;;;;;;5000818;28;20345;-83
2021/12/22 10:14:59;;;;;;;10.25;5.18;;;-1.10;59.70;;;;;;5000679;28;20045;-83
2021/12/22 10:17:32;;;;;;;7.20;4.57;;;-0.50;58.50;;;;;;5000876;28;20038;-83
2021/12/22 10:20:00;;;;;;;8.27;4.63;;;-0.20;56.10;;;;;;5016697;28;20088;-83
2021/12/22 10:22:30;;;;;;;8.00;4.45;;;0.00;56.60;;;;;;5017672;28;20029;-83
2021/12/22 10:25:29;;;;;;;7.45;4.43;;;0.60;57.90;;;;;;5000129;28;20034;-84
2021/12/22 10:28:08;;;;;;;12.52;6.20;;;0.90;50.40;;;;;;4988974;28;20042;-84
2021/12/22 10:30:37;;;;;;;8.65;4.55;;;1.00;53.70;;;;;;4999870;28;20041;-83
2021/12/22 10:33:06;;;;;;;7.82;4.45;;;1.10;53.90;;;;;;5017437;28;20041;-82
2021/12/22 10:35:33;;;;;;;8.00;4.28;;;1.40;54.10;;;;;;5015991;28;20088;-83
2021/12/22 10:38:03;;;;;;;6.78;4.20;;;1.70;53.90;;;;;;4999764;28;20041;-83
2021/12/22 10:40:34;;;;;;;6.40;3.75;;;1.50;53.20;;;;;;5017081;28;20113;-83
2021/12/22 10:43:02;;;;;;;6.72;4.40;;;0.80;52.10;;;;;;4998819;28;20053;-82
2021/12/22 10:45:30;;;;;;;6.72;4.05;;;0.20;53.30;;;;;;5017891;28;20052;-83
2021/12/22 10:50:44;;;;;;;9.63;4.75;;;-1.10;53.50;;;;;;5016936;28;20129;-82
2021/12/22 10:53:13;;;;;;;8.18;4.93;;;-1.80;54.30;;;;;;5015707;28;20088;-82
2021/12/22 10:55:41;;;;;;;8.82;4.63;;;-2.20;55.60;;;;;;4999825;28;20030;-82
2021/12/22 10:58:23;;;;;;;12.13;5.40;;;-2.50;56.60;;;;;;5016047;28;20073;-82
2021/12/22 11:01:04;;;;;;;10.40;4.47;;;-2.90;57.50;;;;;;5016779;28;20472;-82
2021/12/22 11:03:53;;;;;;;8.77;4.22;;;-3.00;57.50;;;;;;5016009;28;20072;-85
2021/12/22 11:06:25;;;;;;;9.07;4.57;;;-3.20;57.50;;;;;;4999314;28;20429;-82
2021/12/22 11:09:15;;;;;;;8.07;4.30;;;-3.30;57.60;;;;;;5017382;28;20029;-83
2021/12/22 11:11:45;;;;;;;9.77;4.75;;;-3.40;57.40;;;;;;4999177;28;20396;-82
2021/12/22 11:14:16;;;;;;;12.48;5.60;;;-3.60;58.10;;;;;;5016522;28;20040;-82
2021/12/22 11:17:10;;;;;;;11.73;5.40;;;-3.80;57.90;;;;;;5015428;28;20069;-82
2021/12/22 11:19:44;;;;;;;8.95;4.68;;;-3.90;58.50;;;;;;5016169;28;20030;-82
2021/12/22 11:22:15;;;;;;;8.27;4.80;;;-4.00;58.90;;;;;;5016390;28;20034;-81
2021/12/22 11:24:52;;;;;;;9.65;4.75;;;-4.10;59.00;;;;;;5016192;28;20076;-82
2021/12/22 11:27:27;;;;;;;9.27;4.72;;;-4.10;59.10;;;;;;4998693;28;20045;-84
2021/12/22 11:29:58;;;;;;;11.48;4.78;;;-4.20;59.40;;;;;;5015894;28;20053;-83
2021/12/22 11:32:29;;;;;;;11.10;4.95;;;-4.30;59.60;;;;;;5015915;28;20395;-82
2021/12/22 11:34:56;;;;;;;;;;;-4.30;59.80;;;;;;5015311;28;20423;-82
2021/12/22 11:37:23;;;;;;;7.70;3.95;;;-4.60;59.80;;;;;;5015413;28;19905;-84
2021/12/22 11:39:50;;;;;;;7.60;4.00;;;-4.70;60.30;;;;;;5014797;28;20038;-82
2021/12/22 11:42:16;;;;;;;7.90;4.00;;;-4.80;60.80;;;;;;5015910;28;20465;-82
2021/12/22 11:44:51;;;;;;;6.72;3.90;;;-4.90;61.10;;;;;;5016098;28;20099;-82
2021/12/22 11:47:17;;;;;;;8.52;4.30;;;-4.90;62.10;;;;;;4998316;28;20137;-83
2021/12/22 11:49:50;;;;;;;8.35;4.07;;;-5.00;62.80;;;;;;5014837;28;20133;-83
2021/12/22 11:52:39;;;;;;;7.45;3.78;;;-4.90;63.20;;;;;;5015472;28;20033;-83
2021/12/22 11:55:15;;;;;;;7.35;3.78;;;-4.80;63.50;;;;;;5015087;28;20092;-82
2021/12/22 11:57:46;;;;;;;7.43;3.63;;;-4.70;63.50;;;;;;5000499;28;20045;-82
2021/12/22 12:00:34;;;;;;;7.20;3.80;;;-4.70;62.70;;;;;;4997929;28;20038;-83
2021/12/22 12:03:22;;;;;;;8.05;4.38;;;-4.80;63.10;;;;;;5014615;28;20431;-83
2021/12/22 12:06:09;;;;;;;8.18;3.92;;;-4.90;63.40;;;;;;5015020;28;20033;-83
2021/12/22 12:09:08;;;;;;;6.20;3.22;;;-5.00;63.60;;;;;;5015108;28;20042;-84
2021/12/22 12:11:56;;;;;;;11.63;4.38;;;-5.10;63.60;;;;;;5015197;28;20034;-83
2021/12/22 12:23:28;;;;;;;9.15;4.25;;;-5.80;64.50;;;;;;5015469;28;20037;-82
2021/12/22 12:25:59;;;;;;;7.13;4.28;;;-6.00;64.10;;;;;;5014775;28;20045;-82
2021/12/22 12:28:27;;;;;;;;;;;-6.10;64.20;;;;;;5014114;28;20045;-81
2021/12/22 12:30:56;;;;;;;7.55;4.10;;;-6.20;64.40;;;;;;4997954;28;19947;-81
2021/12/22 12:33:28;;;;;;;7.75;3.88;;;-6.30;65.10;;;;;;5013687;28;20463;-82
2021/12/22 12:35:58;;;;;;;8.77;3.97;;;-6.40;65.00;;;;;;4997204;28;20391;-83
2021/12/22 12:38:30;;;;;;;6.30;3.78;;;-6.40;64.20;;;;;;5014807;28;20034;-84
2021/12/22 12:41:05;;;;;;;5.70;3.78;;;-6.50;64.50;;;;;;5015195;28;20472;-81
2021/12/22 12:43:51;;;;;;;9.65;4.13;;;-6.60;64.80;;;;;;5013918;28;20050;-82
2021/12/22 12:46:20;;;;;;;8.52;3.80;;;-6.60;65.20;;;;;;5014789;28;20045;-82
2021/12/22 12:48:49;;;;;;;8.88;4.72;;;-6.50;65.30;;;;;;5013461;28;20038;-81
2021/12/22 12:51:25;;;;;;;6.97;3.63;;;-6.80;65.40;;;;;;5013084;28;20037;-82
2021/12/22 12:53:51;;;;;;;8.38;4.35;;;-6.90;65.70;;;;;;4997209;28;20045;-81
2021/12/22 12:56:21;;;;;;;8.68;4.20;;;-6.80;65.70;;;;;;5014886;28;20040;-82
2021/12/22 12:58:58;;;;;;;8.20;3.90;;;-6.90;65.50;;;;;;4997774;28;20033;-82
2021/12/22 13:01:52;;;;;;;7.38;3.67;;;-6.80;65.70;;;;;;4996903;28;20459;-82
2021/12/22 13:04:23;;;;;;;5.93;3.40;;;-6.80;65.30;;;;;;5013175;28;20045;-82
2021/12/22 13:07:18;;;;;;;8.00;3.90;;;-6.80;65.10;;;;;;5013175;28;20064;-82
2021/12/22 13:09:44;;;;;;;6.22;3.55;;;-6.80;64.70;;;;;;4997264;28;20061;-81
2021/12/22 13:12:32;;;;;;;7.05;3.83;;;-6.80;64.80;;;;;;5015731;28;20065;-81